sensor_id;sensor_type;location;lat;lon;timestamp;pressure;altitude;pressure_sealevel;temperature;humidity
12991;BME280;6560;57.692;11.958;2023-05-24T09:36:48;101485.38;;;36.32;57.60
12991;BME280;6560;57.692;11.958;2023-05-24T09:39:20;101487.69;;;37.00;54.92
12991;BME280;6560;57.692;11.958;2023-05-24T09:41:51;101544.34;;;37.50;56.31
12991;BME280;6560;57.692;11.958;2023-05-24T09:44:25;101533.00;;;36.31;57.61
12991;BME280;6560;57.692;11.958;2023-05-24T09:46:53;101477.38;;;36.68;55.42
12991;BME280;6560;57.692;11.958;2023-05-24T09:49:25;101532.47;;;37.05;54.88
12991;BME280;6560;57.692;11.958;2023-05-24T09:51:51;101509.97;;;36.86;55.24
12991;BME280;6560;57.692;11.958;2023-05-24T09:54:16;101508.34;;;36.76;54.80
12991;BME280;6560;57.692;11.958;2023-05-24T09:56:45;101493.38;;;35.94;55.25
12991;BME280;6560;57.692;11.958;2023-05-24T09:59:10;101538.59;;;36.27;56.50
12991;BME280;6560;57.692;11.958;2023-05-24T10:01:36;101474.78;;;34.90;60.52
12991;BME280;6560;57.692;11.958;2023-05-24T10:04:02;101535.22;;;36.08;59.98
12991;BME280;6560;57.692;11.958;2023-05-24T10:06:32;101547.84;;;33.98;67.71
12991;BME280;6560;57.692;11.958;2023-05-24T10:09:02;101522.06;;;34.20;67.45
12991;BME280;6560;57.692;11.958;2023-05-24T10:11:31;101574.19;;;34.13;68.38
12991;BME280;6560;57.692;11.958;2023-05-24T10:13:58;101555.84;;;34.24;68.01
12991;BME280;6560;57.692;11.958;2023-05-24T10:16:24;101487.84;;;33.66;69.64
12991;BME280;6560;57.692;11.958;2023-05-24T10:18:49;101539.47;;;34.15;68.39
12991;BME280;6560;57.692;11.958;2023-05-24T10:21:16;101563.56;;;34.77;66.73
12991;BME280;6560;57.692;11.958;2023-05-24T10:23:50;101559.25;;;34.47;69.14
12991;BME280;6560;57.692;11.958;2023-05-24T10:26:17;101559.13;;;34.59;70.05
12991;BME280;6560;57.692;11.958;2023-05-24T10:28:47;101489.31;;;34.13;68.00
12991;BME280;6560;57.692;11.958;2023-05-24T10:31:21;101553.97;;;34.29;70.03
12991;BME280;6560;57.692;11.958;2023-05-24T10:33:48;101575.00;;;34.21;69.87
12991;BME280;6560;57.692;11.958;2023-05-24T10:36:17;101556.63;;;34.38;67.96
12991;BME280;6560;57.692;11.958;2023-05-24T10:38:45;101554.53;;;34.64;68.08
12991;BME280;6560;57.692;11.958;2023-05-24T10:41:11;101563.66;;;34.65;66.63
12991;BME280;6560;57.692;11.958;2023-05-24T10:43:37;101548.69;;;34.05;70.57
12991;BME280;6560;57.692;11.958;2023-05-24T10:46:03;101545.66;;;32.92;76.27
12991;BME280;6560;57.692;11.958;2023-05-24T10:48:36;101570.97;;;33.44;71.61
12991;BME280;6560;57.692;11.958;2023-05-24T10:51:38;101574.84;;;32.61;77.55
12991;BME280;6560;57.692;11.958;2023-05-24T10:54:17;101524.63;;;33.10;74.21
12991;BME280;6560;57.692;11.958;2023-05-24T10:56:48;101485.66;;;32.52;73.87
12991;BME280;6560;57.692;11.958;2023-05-24T10:59:34;101571.88;;;33.44;73.05
12991;BME280;6560;57.692;11.958;2023-05-24T11:02:08;101570.88;;;33.54;71.48
12991;BME280;6560;57.692;11.958;2023-05-24T11:04:40;101586.38;;;33.55;69.80
12991;BME280;6560;57.692;11.958;2023-05-24T11:07:08;101501.91;;;32.99;69.30
12991;BME280;6560;57.692;11.958;2023-05-24T11:09:35;101515.47;;;33.16;69.13
12991;BME280;6560;57.692;11.958;2023-05-24T11:12:01;101580.16;;;33.29;69.58
12991;BME280;6560;57.692;11.958;2023-05-24T11:14:30;101581.00;;;33.42;68.64
12991;BME280;6560;57.692;11.958;2023-05-24T11:16:57;101516.53;;;32.83;69.39
12991;BME280;6560;57.692;11.958;2023-05-24T11:19:44;101572.88;;;33.17;67.85
12991;BME280;6560;57.692;11.958;2023-05-24T11:22:10;101562.69;;;33.54;67.63
12991;BME280;6560;57.692;11.958;2023-05-24T11:24:39;101570.09;;;33.37;67.67
12991;BME280;6560;57.692;11.958;2023-05-24T11:27:06;101567.56;;;32.72;68.83
12991;BME280;6560;57.692;11.958;2023-05-24T11:29:33;101564.84;;;32.73;67.94
12991;BME280;6560;57.692;11.958;2023-05-24T11:32:04;101567.59;;;32.75;69.21
12991;BME280;6560;57.692;11.958;2023-05-24T11:34:31;101568.50;;;32.01;74.73
12991;BME280;6560;57.692;11.958;2023-05-24T11:36:58;101553.91;;;32.60;70.23
12991;BME280;6560;57.692;11.958;2023-05-24T11:39:31;101535.59;;;32.95;69.09
12991;BME280;6560;57.692;11.958;2023-05-24T11:41:58;101549.38;;;32.62;67.34
12991;BME280;6560;57.692;11.958;2023-05-24T11:44:24;101521.19;;;32.34;69.45
12991;BME280;6560;57.692;11.958;2023-05-24T11:46:56;101546.69;;;32.27;67.75
12991;BME280;6560;57.692;11.958;2023-05-24T11:49:23;101547.47;;;32.91;66.77
12991;BME280;6560;57.692;11.958;2023-05-24T11:51:49;101533.00;;;32.56;67.07
12991;BME280;6560;57.692;11.958;2023-05-24T11:54:17;101564.84;;;32.37;68.75
12991;BME280;6560;57.692;11.958;2023-05-24T11:56:43;101568.47;;;32.80;66.65
12991;BME280;6560;57.692;11.958;2023-05-24T11:59:16;101568.50;;;32.07;68.27
12991;BME280;6560;57.692;11.958;2023-05-24T12:01:43;101567.47;;;31.50;70.98
12991;BME280;6560;57.692;11.958;2023-05-24T12:04:09;101570.31;;;32.23;70.18
12991;BME280;6560;57.692;11.958;2023-05-24T12:06:40;101482.09;;;31.63;71.11
12991;BME280;6560;57.692;11.958;2023-05-24T12:09:07;101489.34;;;31.99;69.70
12991;BME280;6560;57.692;11.958;2023-05-24T12:12:02;101578.47;;;31.87;72.22
12991;BME280;6560;57.692;11.958;2023-05-24T12:14:29;101541.19;;;31.93;69.09
12991;BME280;6560;57.692;11.958;2023-05-24T12:16:55;101568.44;;;31.78;69.36
12991;BME280;6560;57.692;11.958;2023-05-24T12:19:22;101568.47;;;31.99;69.38
12991;BME280;6560;57.692;11.958;2023-05-24T12:21:56;101428.47;;;31.61;66.47
12991;BME280;6560;57.692;11.958;2023-05-24T12:24:23;101563.94;;;32.53;66.31
12991;BME280;6560;57.692;11.958;2023-05-24T12:26:50;101560.31;;;32.39;64.53
12991;BME280;6560;57.692;11.958;2023-05-24T12:29:16;101520.28;;;31.88;64.50
12991;BME280;6560;57.692;11.958;2023-05-24T12:31:51;101553.03;;;32.09;64.72
12991;BME280;6560;57.692;11.958;2023-05-24T12:34:18;101498.41;;;31.50;65.68
12991;BME280;6560;57.692;11.958;2023-05-24T12:36:45;101569.38;;;32.11;64.42
12991;BME280;6560;57.692;11.958;2023-05-24T12:39:26;101483.84;;;31.43;65.22
12991;BME280;6560;57.692;11.958;2023-05-24T12:41:56;101563.06;;;32.28;64.51
12991;BME280;6560;57.692;11.958;2023-05-24T12:44:30;101530.31;;;31.96;63.59
12991;BME280;6560;57.692;11.958;2023-05-24T12:46:57;101569.44;;;32.29;63.10
12991;BME280;6560;57.692;11.958;2023-05-24T12:49:24;101580.28;;;31.97;64.55
12991;BME280;6560;57.692;11.958;2023-05-24T12:51:51;101548.44;;;31.84;64.44
12991;BME280;6560;57.692;11.958;2023-05-24T12:54:18;101555.75;;;31.86;64.81
12991;BME280;6560;57.692;11.958;2023-05-24T12:56:44;101581.16;;;31.72;65.40
12991;BME280;6560;57.692;11.958;2023-05-24T12:59:09;101485.50;;;30.91;67.43
12991;BME280;6560;57.692;11.958;2023-05-24T13:01:36;101589.22;;;31.38;65.83
12991;BME280;6560;57.692;11.958;2023-05-24T13:04:01;101494.75;;;31.40;64.88
12991;BME280;6560;57.692;11.958;2023-05-24T13:06:27;101502.88;;;31.23;65.33
12991;BME280;6560;57.692;11.958;2023-05-24T13:08:52;101570.16;;;31.37;65.53
12991;BME280;6560;57.692;11.958;2023-05-24T13:11:18;101502.91;;;31.51;64.30
12991;BME280;6560;57.692;11.958;2023-05-24T13:13:44;101560.28;;;32.10;63.39
12991;BME280;6560;57.692;11.958;2023-05-24T13:16:10;101569.41;;;32.12;63.43
12991;BME280;6560;57.692;11.958;2023-05-24T13:18:36;101571.97;;;31.36;67.92
12991;BME280;6560;57.692;11.958;2023-05-24T13:21:03;101570.19;;;31.55;65.07
12991;BME280;6560;57.692;11.958;2023-05-24T13:23:33;101561.19;;;31.76;63.83
12991;BME280;6560;57.692;11.958;2023-05-24T13:26:00;101579.34;;;31.72;64.93
12991;BME280;6560;57.692;11.958;2023-05-24T13:28:29;101585.75;;;31.76;65.04
12991;BME280;6560;57.692;11.958;2023-05-24T13:30:55;101554.75;;;31.55;64.57
12991;BME280;6560;57.692;11.958;2023-05-24T13:33:20;101526.56;;;31.43;65.00
12991;BME280;6560;57.692;11.958;2023-05-24T13:35:46;101523.84;;;31.43;64.22
12991;BME280;6560;57.692;11.958;2023-05-24T13:38:11;101590.25;;;31.61;63.50
12991;BME280;6560;57.692;11.958;2023-05-24T13:40:38;101542.66;;;30.88;65.22
12991;BME280;6560;57.692;11.958;2023-05-24T13:43:04;101581.94;;;31.31;64.22
12991;BME280;6560;57.692;11.958;2023-05-24T13:45:29;101515.28;;;30.58;65.70
12991;BME280;6560;57.692;11.958;2023-05-24T13:47:57;101573.66;;;31.08;65.00
12991;BME280;6560;57.692;11.958;2023-05-24T13:50:29;101574.56;;;31.06;66.03
12991;BME280;6560;57.692;11.958;2023-05-24T13:52:56;101576.56;;;31.55;63.82
12991;BME280;6560;57.692;11.958;2023-05-24T13:55:22;101569.03;;;31.00;64.66
12991;BME280;6560;57.692;11.958;2023-05-24T13:57:48;101570.78;;;30.81;65.82
12991;BME280;6560;57.692;11.958;2023-05-24T14:00:14;101568.06;;;30.85;64.79
12991;BME280;6560;57.692;11.958;2023-05-24T14:02:39;101564.28;;;30.56;65.94
12991;BME280;6560;57.692;11.958;2023-05-24T14:05:05;101556.13;;;30.61;66.34
12991;BME280;6560;57.692;11.958;2023-05-24T14:07:31;101566.84;;;30.38;66.99
12991;BME280;6560;57.692;11.958;2023-05-24T14:09:57;101573.50;;;30.78;66.62
12991;BME280;6560;57.692;11.958;2023-05-24T14:12:22;101583.66;;;31.12;66.61
12991;BME280;6560;57.692;11.958;2023-05-24T14:14:48;101566.06;;;30.54;68.63
12991;BME280;6560;57.692;11.958;2023-05-24T14:17:13;101510.91;;;29.70;71.61
12991;BME280;6560;57.692;11.958;2023-05-24T14:19:39;101563.81;;;30.03;72.70
12991;BME280;6560;57.692;11.958;2023-05-24T14:22:04;101576.78;;;30.36;72.94
12991;BME280;6560;57.692;11.958;2023-05-24T14:24:30;101599.78;;;30.74;73.00
12991;BME280;6560;57.692;11.958;2023-05-24T14:26:56;101571.56;;;30.59;75.88
12991;BME280;6560;57.692;11.958;2023-05-24T14:29:21;101590.00;;;31.05;75.57
12991;BME280;6560;57.692;11.958;2023-05-24T14:31:47;101588.97;;;30.89;78.45
12991;BME280;6560;57.692;11.958;2023-05-24T14:34:13;101576.03;;;30.51;81.25
12991;BME280;6560;57.692;11.958;2023-05-24T14:36:38;101577.16;;;30.86;79.83
12991;BME280;6560;57.692;11.958;2023-05-24T14:39:06;101592.44;;;30.61;83.71
12991;BME280;6560;57.692;11.958;2023-05-24T14:41:32;101595.22;;;30.70;82.55
12991;BME280;6560;57.692;11.958;2023-05-24T14:43:58;101569.69;;;30.50;85.06
12991;BME280;6560;57.692;11.958;2023-05-24T14:46:24;101544.50;;;30.95;82.12
12991;BME280;6560;57.692;11.958;2023-05-24T14:48:49;101501.09;;;29.89;84.62
12991;BME280;6560;57.692;11.958;2023-05-24T14:51:15;101541.81;;;31.00;80.81
12991;BME280;6560;57.692;11.958;2023-05-24T14:53:40;101583.72;;;31.26;82.23
12991;BME280;6560;57.692;11.958;2023-05-24T14:56:06;101552.84;;;31.24;81.80
12991;BME280;6560;57.692;11.958;2023-05-24T14:58:34;101558.44;;;31.77;79.75
12991;BME280;6560;57.692;11.958;2023-05-24T15:01:00;101583.75;;;31.38;82.26
12991;BME280;6560;57.692;11.958;2023-05-24T15:03:25;101581.13;;;31.55;82.26
12991;BME280;6560;57.692;11.958;2023-05-24T15:05:51;101565.63;;;31.51;81.96
12991;BME280;6560;57.692;11.958;2023-05-24T15:08:16;101568.25;;;31.19;84.61
12991;BME280;6560;57.692;11.958;2023-05-24T15:10:42;101583.81;;;31.49;84.53
12991;BME280;6560;57.692;11.958;2023-05-24T15:13:11;101506.47;;;31.12;85.83
12991;BME280;6560;57.692;11.958;2023-05-24T15:15:36;101528.44;;;31.60;83.16
12991;BME280;6560;57.692;11.958;2023-05-24T15:18:09;101573.56;;;30.95;93.22
12991;BME280;6560;57.692;11.958;2023-05-24T15:20:34;101577.22;;;30.95;94.03
12991;BME280;6560;57.692;11.958;2023-05-24T15:23:02;101581.56;;;30.66;99.18
12991;BME280;6560;57.692;11.958;2023-05-24T15:25:27;101494.38;;;30.51;94.84
12991;BME280;6560;57.692;11.958;2023-05-24T15:27:53;101575.22;;;30.64;100.00
12991;BME280;6560;57.692;11.958;2023-05-24T15:30:19;101572.56;;;30.77;100.00
12991;BME280;6560;57.692;11.958;2023-05-24T15:32:45;101565.03;;;30.38;100.00
12991;BME280;6560;57.692;11.958;2023-05-24T15:35:10;101535.31;;;30.73;100.00
12991;BME280;6560;57.692;11.958;2023-05-24T15:37:37;101457.75;;;30.03;100.00
12991;BME280;6560;57.692;11.958;2023-05-24T15:40:03;101554.97;;;30.30;100.00
12991;BME280;6560;57.692;11.958;2023-05-24T15:42:28;101583.94;;;30.22;100.00
12991;BME280;6560;57.692;11.958;2023-05-24T15:44:56;101565.00;;;30.35;100.00
12991;BME280;6560;57.692;11.958;2023-05-24T15:47:21;101562.41;;;30.49;100.00
12991;BME280;6560;57.692;11.958;2023-05-24T15:49:52;101508.72;;;30.30;100.00
12991;BME280;6560;57.692;11.958;2023-05-24T15:52:17;101546.84;;;30.36;100.00
12991;BME280;6560;57.692;11.958;2023-05-24T15:54:43;101575.84;;;30.29;100.00
12991;BME280;6560;57.692;11.958;2023-05-24T15:57:08;101564.81;;;30.13;100.00
12991;BME280;6560;57.692;11.958;2023-05-24T15:59:34;101479.13;;;29.63;100.00
12991;BME280;6560;57.692;11.958;2023-05-24T16:02:03;101547.81;;;30.44;100.00
12991;BME280;6560;57.692;11.958;2023-05-24T16:04:29;101559.69;;;30.54;100.00
12991;BME280;6560;57.692;11.958;2023-05-24T16:06:54;101533.44;;;30.60;100.00
12991;BME280;6560;57.692;11.958;2023-05-24T16:09:20;101515.44;;;30.88;100.00
12991;BME280;6560;57.692;11.958;2023-05-24T16:11:45;101488.16;;;30.82;100.00
12991;BME280;6560;57.692;11.958;2023-05-24T16:14:13;101471.72;;;30.61;100.00
12991;BME280;6560;57.692;11.958;2023-05-24T16:16:40;101548.78;;;30.49;100.00
12991;BME280;6560;57.692;11.958;2023-05-24T16:19:06;101552.56;;;30.71;100.00
12991;BME280;6560;57.692;11.958;2023-05-24T16:21:32;101553.47;;;30.71;100.00
12991;BME280;6560;57.692;11.958;2023-05-24T16:23:57;101549.91;;;30.87;100.00
12991;BME280;6560;57.692;11.958;2023-05-24T16:26:23;101536.91;;;30.38;100.00
12991;BME280;6560;57.692;11.958;2023-05-24T16:28:48;101487.00;;;30.39;100.00
12991;BME280;6560;57.692;11.958;2023-05-24T16:31:14;101538.88;;;30.62;100.00
12991;BME280;6560;57.692;11.958;2023-05-24T16:33:40;101548.97;;;30.76;100.00
12991;BME280;6560;57.692;11.958;2023-05-24T16:36:05;101556.66;;;30.16;100.00
12991;BME280;6560;57.692;11.958;2023-05-24T16:38:31;101555.25;;;30.63;100.00
12991;BME280;6560;57.692;11.958;2023-05-24T16:40:57;101550.91;;;31.02;100.00
12991;BME280;6560;57.692;11.958;2023-05-24T16:43:23;101552.72;;;30.98;100.00
12991;BME280;6560;57.692;11.958;2023-05-24T16:45:48;101551.56;;;30.55;100.00
12991;BME280;6560;57.692;11.958;2023-05-24T16:48:14;101543.56;;;30.82;100.00
12991;BME280;6560;57.692;11.958;2023-05-24T16:50:39;101557.94;;;30.60;100.00
12991;BME280;6560;57.692;11.958;2023-05-24T16:53:05;101561.88;;;31.05;100.00
12991;BME280;6560;57.692;11.958;2023-05-24T16:55:30;101568.22;;;31.08;100.00
12991;BME280;6560;57.692;11.958;2023-05-24T16:57:56;101549.84;;;30.74;100.00
12991;BME280;6560;57.692;11.958;2023-05-24T17:00:22;101565.81;;;30.27;100.00
12991;BME280;6560;57.692;11.958;2023-05-24T17:02:47;101554.16;;;30.43;100.00
12991;BME280;6560;57.692;11.958;2023-05-24T17:05:13;101568.50;;;30.22;100.00
12991;BME280;6560;57.692;11.958;2023-05-24T17:07:39;101562.19;;;30.25;100.00
12991;BME280;6560;57.692;11.958;2023-05-24T17:10:05;101569.09;;;29.89;100.00
12991;BME280;6560;57.692;11.958;2023-05-24T17:12:30;101544.16;;;30.42;97.76
12991;BME280;6560;57.692;11.958;2023-05-24T17:14:56;101538.81;;;30.53;97.23
12991;BME280;6560;57.692;11.958;2023-05-24T17:17:21;101572.63;;;30.93;94.49
12991;BME280;6560;57.692;11.958;2023-05-24T17:19:47;101574.56;;;31.12;93.29
12991;BME280;6560;57.692;11.958;2023-05-24T17:22:12;101560.78;;;30.80;93.57
12991;BME280;6560;57.692;11.958;2023-05-24T17:24:38;101568.94;;;30.80;91.67
12991;BME280;6560;57.692;11.958;2023-05-24T17:27:04;101557.19;;;30.88;90.44
12991;BME280;6560;57.692;11.958;2023-05-24T17:29:31;101558.91;;;30.65;88.60
12991;BME280;6560;57.692;11.958;2023-05-24T17:31:57;101502.13;;;29.97;86.93
12991;BME280;6560;57.692;11.958;2023-05-24T17:34:22;101543.41;;;30.58;86.56
12991;BME280;6560;57.692;11.958;2023-05-24T17:36:48;101475.19;;;30.32;85.40
12991;BME280;6560;57.692;11.958;2023-05-24T17:39:13;101545.91;;;30.31;85.52
12991;BME280;6560;57.692;11.958;2023-05-24T17:41:41;101532.06;;;29.99;82.75
12991;BME280;6560;57.692;11.958;2023-05-24T17:44:08;101544.34;;;30.59;81.57
12991;BME280;6560;57.692;11.958;2023-05-24T17:46:34;101554.59;;;29.90;81.78
12991;BME280;6560;57.692;11.958;2023-05-24T17:49:00;101539.94;;;29.73;82.25
12991;BME280;6560;57.692;11.958;2023-05-24T17:51:26;101468.59;;;29.11;82.04
12991;BME280;6560;57.692;11.958;2023-05-24T17:53:51;101548.41;;;30.03;81.10
12991;BME280;6560;57.692;11.958;2023-05-24T17:56:17;101552.03;;;30.02;80.75
12991;BME280;6560;57.692;11.958;2023-05-24T17:58:42;101544.56;;;29.83;81.08
12991;BME280;6560;57.692;11.958;2023-05-24T18:01:09;101547.41;;;29.92;80.17
12991;BME280;6560;57.692;11.958;2023-05-24T18:03:36;101543.50;;;29.69;81.64
12991;BME280;6560;57.692;11.958;2023-05-24T18:06:03;101462.69;;;29.50;79.73
12991;BME280;6560;57.692;11.958;2023-05-24T18:08:29;101518.06;;;29.62;79.30
12991;BME280;6560;57.692;11.958;2023-05-24T18:10:55;101535.19;;;29.54;80.01
12991;BME280;6560;57.692;11.958;2023-05-24T18:13:33;101517.78;;;29.35;80.17
12991;BME280;6560;57.692;11.958;2023-05-24T18:15:58;101513.28;;;29.34;79.69
12991;BME280;6560;57.692;11.958;2023-05-24T18:18:24;101522.53;;;29.54;79.79
12991;BME280;6560;57.692;11.958;2023-05-24T18:20:49;101468.63;;;29.15;79.53
12991;BME280;6560;57.692;11.958;2023-05-24T18:23:16;101509.88;;;29.58;79.36
12991;BME280;6560;57.692;11.958;2023-05-24T18:25:42;101460.44;;;29.08;82.52
12991;BME280;6560;57.692;11.958;2023-05-24T18:28:09;101535.09;;;29.43;82.94
12991;BME280;6560;57.692;11.958;2023-05-24T18:30:36;101541.00;;;29.07;85.78
12991;BME280;6560;57.692;11.958;2023-05-24T18:33:02;101401.50;;;28.28;85.78
12991;BME280;6560;57.692;11.958;2023-05-24T18:35:28;101534.41;;;28.87;86.51
12991;BME280;6560;57.692;11.958;2023-05-24T18:37:54;101534.78;;;29.19;85.44
12991;BME280;6560;57.692;11.958;2023-05-24T18:40:20;101514.78;;;29.12;85.96
12991;BME280;6560;57.692;11.958;2023-05-24T18:42:47;101534.16;;;29.41;83.72
12991;BME280;6560;57.692;11.958;2023-05-24T18:45:13;101531.28;;;29.30;84.89
12991;BME280;6560;57.692;11.958;2023-05-24T18:47:38;101519.16;;;29.00;86.96
12991;BME280;6560;57.692;11.958;2023-05-24T18:50:05;101536.44;;;29.06;89.42
12991;BME280;6560;57.692;11.958;2023-05-24T18:52:31;101493.44;;;28.73;89.94
12991;BME280;6560;57.692;11.958;2023-05-24T18:54:56;101473.94;;;28.35;91.34
12991;BME280;6560;57.692;11.958;2023-05-24T18:57:23;101532.13;;;29.23;90.91
12991;BME280;6560;57.692;11.958;2023-05-24T18:59:49;101543.63;;;28.39;95.68
12991;BME280;6560;57.692;11.958;2023-05-24T19:02:16;101542.91;;;28.52;94.40
12991;BME280;6560;57.692;11.958;2023-05-24T19:04:42;101551.66;;;28.33;94.73
12991;BME280;6560;57.692;11.958;2023-05-24T19:07:13;101505.75;;;27.45;98.22
12991;BME280;6560;57.692;11.958;2023-05-24T19:09:40;101542.81;;;27.92;96.11
12991;BME280;6560;57.692;11.958;2023-05-24T19:12:06;101572.25;;;27.72;94.68
12991;BME280;6560;57.692;11.958;2023-05-24T19:14:35;101558.56;;;27.65;95.30
12991;BME280;6560;57.692;11.958;2023-05-24T19:17:01;101560.84;;;27.90;93.32
12991;BME280;6560;57.692;11.958;2023-05-24T19:19:26;101490.16;;;27.30;94.25
12991;BME280;6560;57.692;11.958;2023-05-24T19:21:52;101572.03;;;27.60;96.42
12991;BME280;6560;57.692;11.958;2023-05-24T19:24:17;101572.25;;;27.72;93.57
12991;BME280;6560;57.692;11.958;2023-05-24T19:26:43;101535.56;;;27.00;97.95
12991;BME280;6560;57.692;11.958;2023-05-24T19:29:08;101570.69;;;27.40;97.20
12991;BME280;6560;57.692;11.958;2023-05-24T19:31:33;101517.09;;;26.82;99.14
12991;BME280;6560;57.692;11.958;2023-05-24T19:34:00;101574.94;;;26.87;100.00
12991;BME280;6560;57.692;11.958;2023-05-24T19:36:28;101566.88;;;27.29;98.35
12991;BME280;6560;57.692;11.958;2023-05-24T19:38:53;101559.53;;;27.23;100.00
12991;BME280;6560;57.692;11.958;2023-05-24T19:41:19;101558.66;;;26.84;100.00
12991;BME280;6560;57.692;11.958;2023-05-24T19:43:45;101550.19;;;26.69;100.00
12991;BME280;6560;57.692;11.958;2023-05-24T19:46:10;101549.88;;;26.94;100.00
12991;BME280;6560;57.692;11.958;2023-05-24T19:48:36;101500.63;;;26.70;100.00
12991;BME280;6560;57.692;11.958;2023-05-24T19:51:02;101511.44;;;26.31;100.00
12991;BME280;6560;57.692;11.958;2023-05-24T19:53:28;101516.06;;;26.00;100.00
12991;BME280;6560;57.692;11.958;2023-05-24T19:55:53;101563.16;;;26.83;100.00
12991;BME280;6560;57.692;11.958;2023-05-24T19:58:19;101558.94;;;26.57;100.00
12991;BME280;6560;57.692;11.958;2023-05-24T20:00:45;101560.19;;;26.71;100.00
12991;BME280;6560;57.692;11.958;2023-05-24T20:03:10;101520.63;;;26.39;100.00
12991;BME280;6560;57.692;11.958;2023-05-24T20:05:37;101547.84;;;26.45;100.00
12991;BME280;6560;57.692;11.958;2023-05-24T20:08:03;101546.84;;;26.41;100.00
12991;BME280;6560;57.692;11.958;2023-05-24T20:10:28;101556.38;;;26.26;100.00
12991;BME280;6560;57.692;11.958;2023-05-24T20:12:56;101556.03;;;26.13;100.00
12991;BME280;6560;57.692;11.958;2023-05-24T20:15:25;101557.00;;;26.15;100.00
12991;BME280;6560;57.692;11.958;2023-05-24T20:17:52;101549.47;;;26.02;100.00
12991;BME280;6560;57.692;11.958;2023-05-24T20:20:17;101549.91;;;25.85;100.00
12991;BME280;6560;57.692;11.958;2023-05-24T20:22:43;101546.38;;;25.56;100.00
12991;BME280;6560;57.692;11.958;2023-05-24T20:25:08;101515.19;;;25.67;98.67
12991;BME280;6560;57.692;11.958;2023-05-24T20:27:34;101461.72;;;25.21;100.00
12991;BME280;6560;57.692;11.958;2023-05-24T20:29:59;101465.75;;;25.04;100.00
12991;BME280;6560;57.692;11.958;2023-05-24T20:32:25;101539.84;;;25.48;98.96
12991;BME280;6560;57.692;11.958;2023-05-24T20:34:51;101555.69;;;25.65;97.32
12991;BME280;6560;57.692;11.958;2023-05-24T20:37:16;101540.75;;;25.47;96.16
12991;BME280;6560;57.692;11.958;2023-05-24T20:39:42;101563.22;;;25.46;98.95
12991;BME280;6560;57.692;11.958;2023-05-24T20:42:08;101503.81;;;24.84;100.00
12991;BME280;6560;57.692;11.958;2023-05-24T20:44:33;101568.81;;;25.20;100.00
12991;BME280;6560;57.692;11.958;2023-05-24T20:46:59;101562.22;;;25.11;100.00
12991;BME280;6560;57.692;11.958;2023-05-24T20:49:24;101561.44;;;24.86;100.00
12991;BME280;6560;57.692;11.958;2023-05-24T20:51:50;101567.97;;;24.93;100.00
12991;BME280;6560;57.692;11.958;2023-05-24T20:54:15;101564.53;;;24.98;100.00
12991;BME280;6560;57.692;11.958;2023-05-24T20:56:41;101566.97;;;24.89;100.00
12991;BME280;6560;57.692;11.958;2023-05-24T20:59:07;101545.78;;;24.75;100.00
12991;BME280;6560;57.692;11.958;2023-05-24T21:01:32;101429.28;;;24.00;100.00
12991;BME280;6560;57.692;11.958;2023-05-24T21:03:58;101553.69;;;24.69;100.00
12991;BME280;6560;57.692;11.958;2023-05-24T21:06:23;101550.09;;;24.40;100.00
12991;BME280;6560;57.692;11.958;2023-05-24T21:08:49;101561.50;;;24.31;100.00
12991;BME280;6560;57.692;11.958;2023-05-24T21:11:15;101556.66;;;24.48;100.00
12991;BME280;6560;57.692;11.958;2023-05-24T21:13:40;101568.50;;;24.53;100.00
12991;BME280;6560;57.692;11.958;2023-05-24T21:16:06;101563.97;;;24.52;100.00
12991;BME280;6560;57.692;11.958;2023-05-24T21:18:31;101570.78;;;24.68;100.00
12991;BME280;6560;57.692;11.958;2023-05-24T21:20:58;101580.09;;;24.50;100.00
12991;BME280;6560;57.692;11.958;2023-05-24T21:23:23;101571.34;;;24.31;100.00
12991;BME280;6560;57.692;11.958;2023-05-24T21:25:49;101564.97;;;24.55;100.00
12991;BME280;6560;57.692;11.958;2023-05-24T21:28:15;101406.47;;;23.60;100.00
12991;BME280;6560;57.692;11.958;2023-05-24T21:30:40;101564.88;;;24.81;100.00
12991;BME280;6560;57.692;11.958;2023-05-24T21:33:06;101555.22;;;24.89;100.00
12991;BME280;6560;57.692;11.958;2023-05-24T21:35:31;101553.66;;;24.39;100.00
12991;BME280;6560;57.692;11.958;2023-05-24T21:37:57;101583.91;;;24.85;100.00
12991;BME280;6560;57.692;11.958;2023-05-24T21:40:23;101571.81;;;25.01;100.00
12991;BME280;6560;57.692;11.958;2023-05-24T21:42:48;101593.50;;;25.04;100.00
12991;BME280;6560;57.692;11.958;2023-05-24T21:45:14;101579.72;;;24.95;100.00
12991;BME280;6560;57.692;11.958;2023-05-24T21:47:43;101576.22;;;24.97;100.00
12991;BME280;6560;57.692;11.958;2023-05-24T21:50:08;101580.81;;;24.73;100.00
12991;BME280;6560;57.692;11.958;2023-05-24T21:52:34;101580.41;;;25.18;100.00
12991;BME280;6560;57.692;11.958;2023-05-24T21:55:00;101566.09;;;25.20;100.00
12991;BME280;6560;57.692;11.958;2023-05-24T21:57:25;101578.22;;;25.36;100.00
12991;BME280;6560;57.692;11.958;2023-05-24T21:59:51;101552.50;;;24.89;100.00
12991;BME280;6560;57.692;11.958;2023-05-24T22:02:17;101573.50;;;24.97;100.00
12991;BME280;6560;57.692;11.958;2023-05-24T22:04:43;101585.50;;;25.07;100.00
12991;BME280;6560;57.692;11.958;2023-05-24T22:07:08;101570.06;;;25.03;100.00
12991;BME280;6560;57.692;11.958;2023-05-24T22:09:34;101578.13;;;24.73;100.00
12991;BME280;6560;57.692;11.958;2023-05-24T22:11:59;101578.41;;;25.11;100.00
12991;BME280;6560;57.692;11.958;2023-05-24T22:14:25;101564.84;;;24.79;100.00
12991;BME280;6560;57.692;11.958;2023-05-24T22:16:51;101574.19;;;25.20;100.00
12991;BME280;6560;57.692;11.958;2023-05-24T22:19:16;101543.78;;;25.27;100.00